Time;durP1;ratioP1;P1;durP2;ratioP2;P2;SDS_P1;SDS_P2;PMS_P1;PMS_P2;Temp;Humidity;BMP_temperature;BMP_pressure;BME280_temperature;BME280_humidity;BME280_pressure;Samples;Min_cycle;Max_cycle;Signal;HPM_P1;HPM_P2
2022/08/24 00:00:19;;;;;;;50.33;46.03;;;19.30;99.90;;;;;;5029616;28;20068;-87
2022/08/24 00:02:46;;;;;;;48.60;44.33;;;19.30;99.90;;;;;;5045386;28;20454;-86
2022/08/24 00:05:13;;;;;;;46.70;42.33;;;19.30;99.90;;;;;;4999968;28;20044;-87
2022/08/24 00:07:40;;;;;;;46.67;42.45;;;19.30;99.90;;;;;;5003822;28;20047;-86
2022/08/24 00:10:09;;;;;;;48.17;43.90;;;19.20;99.90;;;;;;5034285;28;20515;-85
2022/08/24 00:12:35;;;;;;;50.58;46.33;;;19.30;99.90;;;;;;5031478;28;20059;-86
2022/08/24 00:15:03;;;;;;;48.67;44.22;;;19.30;99.90;;;;;;5035005;28;20437;-87
2022/08/24 00:17:29;;;;;;;47.08;42.92;;;19.30;99.90;;;;;;4999131;28;20496;-87
2022/08/24 00:19:55;;;;;;;49.28;44.95;;;19.20;99.90;;;;;;5009315;28;20521;-85
2022/08/24 00:22:21;;;;;;;49.80;45.42;;;19.20;99.90;;;;;;5021609;28;20064;-86
2022/08/24 00:24:48;;;;;;;47.72;43.72;;;19.20;99.90;;;;;;5016732;28;20463;-85
2022/08/24 00:27:14;;;;;;;47.88;43.70;;;19.10;99.90;;;;;;4996391;28;20467;-86
2022/08/24 00:29:43;;;;;;;48.97;44.65;;;19.00;99.90;;;;;;5010696;28;20139;-85
2022/08/24 00:32:11;;;;;;;46.95;42.63;;;19.00;99.90;;;;;;5010232;28;20357;-86
2022/08/24 00:34:38;;;;;;;50.13;45.83;;;19.00;99.90;;;;;;4996719;28;20385;-86
2022/08/24 00:37:04;;;;;;;51.47;47.08;;;18.80;99.90;;;;;;5012977;28;20045;-87
2022/08/24 00:39:31;;;;;;;52.90;47.83;;;18.80;99.90;;;;;;5001088;28;20087;-86
2022/08/24 00:41:57;;;;;;;47.05;42.85;;;18.80;99.90;;;;;;4991532;28;20118;-86
2022/08/24 00:44:23;;;;;;;50.42;45.90;;;18.80;99.90;;;;;;5014001;28;20538;-87
2022/08/24 00:47:16;;;;;;;49.83;45.33;;;18.70;99.90;;;;;;4995729;28;20047;-87
2022/08/24 00:49:53;;;;;;;49.00;44.67;;;18.60;99.90;;;;;;5009438;28;20045;-86
2022/08/24 00:52:39;;;;;;;48.15;43.88;;;18.60;99.90;;;;;;5011712;28;20041;-85
2022/08/24 00:55:25;;;;;;;50.10;45.85;;;18.50;99.90;;;;;;5016152;28;20043;-86
2022/08/24 00:57:54;;;;;;;50.20;46.00;;;18.50;99.90;;;;;;5018025;28;20044;-86
2022/08/24 01:00:25;;;;;;;54.28;49.38;;;18.50;99.90;;;;;;5049716;28;20131;-85
2022/08/24 01:03:03;;;;;;;53.33;48.60;;;18.40;99.90;;;;;;5014894;28;20051;-86
2022/08/24 01:05:31;;;;;;;54.60;49.67;;;18.40;99.90;;;;;;4992041;28;20377;-86
2022/08/24 01:07:59;;;;;;;52.97;48.00;;;18.30;99.90;;;;;;4978833;28;20045;-85
2022/08/24 01:10:29;;;;;;;51.88;47.38;;;18.30;99.90;;;;;;5015448;28;20045;-85
2022/08/24 01:13:00;;;;;;;49.67;45.28;;;18.20;99.90;;;;;;4998816;28;20516;-86
2022/08/24 01:15:31;;;;;;;;;;;18.10;99.90;;;;;;4998882;28;20404;-85
2022/08/24 01:20:55;;;;;;;56.47;51.70;;;18.00;99.90;;;;;;4997684;28;20437;-86
2022/08/24 01:23:21;;;;;;;56.35;51.53;;;18.00;99.90;;;;;;5014103;28;20109;-86
2022/08/24 01:25:47;;;;;;;55.47;50.58;;;18.10;99.90;;;;;;5023412;28;20051;-86
2022/08/24 01:28:18;;;;;;;54.92;50.13;;;18.00;99.90;;;;;;4968052;28;20518;-86
2022/08/24 01:30:46;;;;;;;56.65;51.70;;;18.00;99.90;;;;;;5010593;28;20048;-86
2022/08/24 01:33:23;;;;;;;55.95;50.75;;;18.00;99.90;;;;;;4994916;28;20127;-87
2022/08/24 01:35:53;;;;;;;53.67;48.95;;;17.90;99.90;;;;;;5027960;28;20052;-87
2022/08/24 01:38:19;;;;;;;52.47;47.92;;;17.90;99.90;;;;;;5018072;28;20039;-86
2022/08/24 01:40:51;;;;;;;55.50;50.47;;;17.80;99.90;;;;;;4981262;28;20056;-86
2022/08/24 01:43:17;;;;;;;53.08;48.08;;;17.80;99.90;;;;;;5040617;28;20092;-87
2022/08/24 01:45:47;;;;;;;51.63;46.85;;;17.80;99.90;;;;;;5015077;28;20033;-86
2022/08/24 01:48:14;;;;;;;56.80;51.70;;;17.80;99.90;;;;;;4981591;28;20044;-86
2022/08/24 01:50:42;;;;;;;57.08;52.03;;;17.60;99.90;;;;;;5000350;28;20094;-87
2022/08/24 01:53:09;;;;;;;59.92;54.42;;;17.70;99.90;;;;;;5011551;28;20523;-86
2022/08/24 01:55:35;;;;;;;64.28;58.03;;;17.70;99.90;;;;;;5007556;28;20079;-86
2022/08/24 01:58:03;;;;;;;60.35;54.72;;;17.70;99.90;;;;;;4999809;28;20044;-86
2022/08/24 02:00:30;;;;;;;56.63;51.75;;;17.70;99.90;;;;;;5026777;28;20045;-87
2022/08/24 02:02:56;;;;;;;55.78;50.75;;;17.70;99.90;;;;;;4997306;28;20126;-86
2022/08/24 02:05:23;;;;;;;56.63;51.83;;;17.70;99.90;;;;;;4995783;28;20311;-87
2022/08/24 02:07:50;;;;;;;56.42;51.42;;;17.60;99.90;;;;;;4980647;28;20052;-87
2022/08/24 02:10:17;;;;;;;61.28;55.70;;;17.60;99.90;;;;;;4997503;28;20591;-87
2022/08/24 02:12:56;;;;;;;63.42;57.72;;;17.60;99.90;;;;;;4994028;28;20484;-86
2022/08/24 02:15:38;;;;;;;56.40;51.05;;;17.60;99.90;;;;;;4998586;28;20053;-87
2022/08/24 02:18:10;;;;;;;59.92;54.53;;;17.60;99.90;;;;;;5012082;28;20439;-86
2022/08/24 02:20:37;;;;;;;74.43;67.45;;;17.60;99.90;;;;;;5024913;28;20094;-86
2022/08/24 02:23:07;;;;;;;63.38;57.55;;;17.60;99.90;;;;;;4990423;28;20346;-86
2022/08/24 02:25:33;;;;;;;58.72;53.75;;;17.50;99.90;;;;;;5015231;28;20620;-86
2022/08/24 02:28:00;;;;;;;55.95;51.00;;;17.50;99.90;;;;;;5025307;28;20048;-86
2022/08/24 02:30:28;;;;;;;47.00;42.90;;;17.50;99.90;;;;;;4994266;28;20055;-86
2022/08/24 02:32:55;;;;;;;52.20;47.33;;;17.50;99.90;;;;;;4995775;28;20083;-86
2022/08/24 02:35:22;;;;;;;52.95;48.55;;;17.40;99.90;;;;;;4981649;28;20080;-87
2022/08/24 02:37:49;;;;;;;56.67;51.40;;;17.30;99.90;;;;;;5030030;28;20048;-86
2022/08/24 02:40:16;;;;;;;58.92;53.42;;;17.30;99.90;;;;;;4977857;28;20045;-85
2022/08/24 02:42:43;;;;;;;60.55;55.17;;;17.30;99.90;;;;;;5001068;28;20053;-86
2022/08/24 02:45:10;;;;;;;60.75;55.33;;;17.30;99.90;;;;;;5000761;28;20056;-86
2022/08/24 02:47:41;;;;;;;58.80;53.55;;;17.30;99.90;;;;;;4997371;28;20090;-86
2022/08/24 02:50:10;;;;;;;58.65;53.42;;;17.40;99.90;;;;;;4994242;28;20099;-86
2022/08/24 02:52:38;;;;;;;59.45;54.08;;;17.30;99.90;;;;;;5006792;28;20045;-87
2022/08/24 02:55:08;;;;;;;56.05;51.03;;;17.30;99.90;;;;;;5000880;28;20472;-86
2022/08/24 02:57:36;;;;;;;50.95;46.53;;;17.30;99.90;;;;;;5012173;28;20402;-86
2022/08/24 03:00:07;;;;;;;40.67;37.40;;;17.20;99.90;;;;;;4983480;28;20051;-86
2022/08/24 03:02:34;;;;;;;47.38;43.45;;;17.30;99.90;;;;;;5009680;28;20091;-87
2022/08/24 03:05:05;;;;;;;47.13;43.05;;;17.20;99.90;;;;;;5015385;28;20044;-86
2022/08/24 03:07:31;;;;;;;53.50;48.83;;;17.10;99.90;;;;;;5026344;28;20110;-86
2022/08/24 03:09:57;;;;;;;52.85;48.25;;;17.10;99.90;;;;;;4999976;28;20063;-86
2022/08/24 03:12:24;;;;;;;52.15;47.55;;;17.10;99.90;;;;;;5016528;28;20071;-87
2022/08/24 03:14:50;;;;;;;49.33;45.17;;;17.10;99.90;;;;;;4990454;28;20044;-87
2022/08/24 03:17:16;;;;;;;47.90;43.72;;;17.00;99.90;;;;;;4981360;28;20063;-87
2022/08/24 03:19:42;;;;;;;51.45;47.08;;;17.00;99.90;;;;;;5013897;28;20036;-87
2022/08/24 03:22:09;;;;;;;51.85;47.33;;;17.00;99.90;;;;;;5013309;28;20484;-86
2022/08/24 03:24:35;;;;;;;50.63;46.22;;;17.00;99.90;;;;;;5014747;28;20391;-86
2022/08/24 03:27:03;;;;;;;58.92;53.72;;;17.00;99.90;;;;;;5000948;28;20538;-86
2022/08/24 03:29:31;;;;;;;55.00;50.17;;;17.00;99.90;;;;;;5013078;28;20063;-87
2022/08/24 03:31:58;;;;;;;52.70;48.10;;;17.00;99.90;;;;;;5013495;28;20052;-87
2022/08/24 03:34:24;;;;;;;57.75;52.78;;;17.00;99.90;;;;;;5016225;28;20048;-87
2022/08/24 03:36:51;;;;;;;56.92;51.97;;;17.00;99.90;;;;;;4998004;28;20063;-86
2022/08/24 03:39:17;;;;;;;53.10;48.45;;;16.90;99.90;;;;;;4981502;28;20459;-86
2022/08/24 03:41:47;;;;;;;52.38;47.88;;;16.90;99.90;;;;;;4992563;28;20090;-86
2022/08/24 03:44:13;;;;;;;53.60;48.72;;;17.00;99.90;;;;;;5016991;28;20048;-85
2022/08/24 03:46:41;;;;;;;53.97;49.17;;;17.00;99.90;;;;;;4982180;28;20048;-86
2022/08/24 03:49:08;;;;;;;53.45;48.70;;;17.00;99.90;;;;;;4983378;28;20482;-86
2022/08/24 03:51:36;;;;;;;51.55;47.05;;;16.90;99.90;;;;;;5025617;28;20040;-86
2022/08/24 03:54:07;;;;;;;51.08;46.55;;;16.90;99.90;;;;;;5016827;28;20053;-86
2022/08/24 03:56:34;;;;;;;54.88;49.95;;;16.90;99.90;;;;;;5025420;28;20045;-86
2022/08/24 03:59:01;;;;;;;50.83;46.53;;;16.80;99.90;;;;;;4995008;28;20158;-86
2022/08/24 04:01:30;;;;;;;48.55;44.25;;;16.80;99.90;;;;;;5014572;28;20041;-87
2022/08/24 04:03:58;;;;;;;52.80;48.30;;;16.70;99.90;;;;;;4982098;28;20537;-86
2022/08/24 04:06:30;;;;;;;49.45;45.33;;;16.70;99.90;;;;;;5004513;28;20560;-87
2022/08/24 04:08:56;;;;;;;47.42;43.45;;;16.70;99.90;;;;;;5015621;28;20053;-87
2022/08/24 04:11:25;;;;;;;48.58;44.67;;;16.70;99.90;;;;;;5010915;28;20063;-87
2022/08/24 04:13:55;;;;;;;49.47;45.13;;;16.70;99.90;;;;;;5000131;28;20110;-87
2022/08/24 04:16:22;;;;;;;52.80;48.15;;;16.60;99.90;;;;;;5017127;28;20041;-87
2022/08/24 04:18:56;;;;;;;47.60;43.70;;;16.60;99.90;;;;;;5001673;28;20131;-86
2022/08/24 04:21:33;;;;;;;49.97;45.78;;;16.60;99.90;;;;;;5016179;28;20048;-87
2022/08/24 04:24:00;;;;;;;44.45;40.70;;;16.60;99.90;;;;;;5000868;28;20503;-87
2022/08/24 04:26:30;;;;;;;48.00;44.03;;;16.60;99.90;;;;;;5030273;28;20074;-87
2022/08/24 04:28:57;;;;;;;48.13;44.13;;;16.70;99.90;;;;;;5011225;28;20729;-86
2022/08/24 04:31:24;;;;;;;47.83;43.72;;;16.70;99.90;;;;;;5017834;28;20091;-86
2022/08/24 04:33:51;;;;;;;45.78;41.92;;;16.70;99.90;;;;;;4982622;28;20048;-86
2022/08/24 04:36:20;;;;;;;45.38;41.42;;;16.70;99.90;;;;;;4999904;28;20556;-86
2022/08/24 04:38:48;;;;;;;46.55;42.72;;;16.70;99.90;;;;;;5033018;28;20037;-87
2022/08/24 04:41:28;;;;;;;46.88;42.75;;;16.70;99.90;;;;;;5016138;28;20044;-86
2022/08/24 04:43:54;;;;;;;45.38;41.60;;;16.70;99.90;;;;;;5003317;28;20215;-86
2022/08/24 04:46:21;;;;;;;48.03;43.97;;;16.70;99.90;;;;;;5000035;28;20098;-86
2022/08/24 04:48:48;;;;;;;51.95;47.08;;;16.70;99.90;;;;;;4997710;28;20414;-85
2022/08/24 04:51:26;;;;;;;51.33;46.67;;;16.70;99.90;;;;;;4999797;28;20094;-87
2022/08/24 04:53:52;;;;;;;50.90;46.58;;;16.70;99.90;;;;;;4982022;28;20500;-87
2022/08/24 04:56:25;;;;;;;47.05;43.15;;;16.70;99.90;;;;;;4982403;28;20248;-86
2022/08/24 04:58:55;;;;;;;49.60;45.30;;;16.60;99.90;;;;;;4997556;28;20056;-86
2022/08/24 05:01:24;;;;;;;45.13;41.38;;;16.70;99.90;;;;;;4996615;28;20071;-87
2022/08/24 05:03:53;;;;;;;45.50;42.00;;;16.60;99.90;;;;;;5013818;28;20041;-87
2022/08/24 05:06:26;;;;;;;42.58;39.20;;;16.70;99.90;;;;;;5010406;28;20048;-87
2022/08/24 05:08:53;;;;;;;48.05;43.55;;;16.60;99.90;;;;;;5002830;28;20056;-86
2022/08/24 05:11:21;;;;;;;48.13;43.85;;;16.60;99.90;;;;;;4986928;28;20106;-86
2022/08/24 05:13:54;;;;;;;54.85;49.83;;;16.60;99.90;;;;;;4979076;28;20114;-86
2022/08/24 05:16:22;;;;;;;50.50;46.15;;;16.70;99.90;;;;;;5011661;28;20456;-87
2022/08/24 05:18:53;;;;;;;53.67;48.67;;;16.70;99.90;;;;;;5000976;28;20237;-88
2022/08/24 05:21:22;;;;;;;54.22;49.47;;;16.80;99.90;;;;;;4981488;28;20052;-86
2022/08/24 05:23:51;;;;;;;54.17;49.38;;;16.90;99.90;;;;;;4993049;28;20103;-87
2022/08/24 05:26:25;;;;;;;52.03;47.47;;;17.00;99.90;;;;;;4993037;28;20092;-87
2022/08/24 05:28:55;;;;;;;51.17;46.47;;;17.10;99.90;;;;;;4979392;28;20119;-87
2022/08/24 05:31:28;;;;;;;48.28;44.15;;;17.20;99.90;;;;;;4999154;28;20060;-88
2022/08/24 05:33:58;;;;;;;76.22;69.45;;;17.30;99.90;;;;;;4994255;28;20052;-88
2022/08/24 05:36:33;;;;;;;51.83;47.28;;;17.40;99.90;;;;;;4994829;28;20044;-87
2022/08/24 05:39:05;;;;;;;52.42;47.95;;;17.50;99.90;;;;;;4996788;28;20428;-87
2022/08/24 05:41:33;;;;;;;56.90;51.60;;;17.60;99.90;;;;;;4999608;28;20048;-86
2022/08/24 05:44:08;;;;;;;57.63;52.35;;;17.70;99.90;;;;;;4982066;28;20052;-87
2022/08/24 05:46:40;;;;;;;59.88;54.42;;;17.80;99.90;;;;;;4977677;28;20907;-86
2022/08/24 05:49:07;;;;;;;57.33;51.80;;;17.90;99.90;;;;;;4979412;28;20663;-87
2022/08/24 05:51:34;;;;;;;56.65;51.28;;;18.10;99.90;;;;;;5000245;28;20048;-87
2022/08/24 05:54:10;;;;;;;56.92;52.03;;;18.30;99.90;;;;;;4993303;28;20049;-87
2022/08/24 05:56:51;;;;;;;51.42;46.38;;;18.50;99.90;;;;;;4972417;28;20080;-88
2022/08/24 05:59:18;;;;;;;49.53;45.13;;;18.60;99.90;;;;;;4993682;28;20048;-87
2022/08/24 06:01:46;;;;;;;50.58;46.05;;;18.80;99.90;;;;;;4990494;28;20041;-88
2022/08/24 06:04:13;;;;;;;49.28;44.85;;;18.90;99.90;;;;;;4983191;28;20822;-87
2022/08/24 06:06:41;;;;;;;53.28;48.60;;;19.10;99.90;;;;;;4993097;28;20850;-86
2022/08/24 06:09:10;;;;;;;51.63;46.97;;;19.30;99.90;;;;;;5002674;28;20064;-87
2022/08/24 06:11:39;;;;;;;47.90;43.75;;;19.50;99.90;;;;;;4992086;28;20131;-87
2022/08/24 06:14:09;;;;;;;46.50;42.47;;;19.60;99.90;;;;;;4997591;28;20145;-88
2022/08/24 06:16:45;;;;;;;49.42;45.05;;;19.80;99.90;;;;;;4980688;28;20482;-87
2022/08/24 06:19:15;;;;;;;44.92;40.65;;;19.90;99.90;;;;;;4992884;28;20094;-88
2022/08/24 06:21:48;;;;;;;46.33;42.50;;;20.10;99.90;;;;;;5008236;28;20044;-88
2022/08/24 06:24:15;;;;;;;48.33;44.17;;;20.20;99.90;;;;;;5013623;28;20500;-88
2022/08/24 06:29:33;;;;;;;47.20;43.22;;;20.50;99.90;;;;;;5012675;28;20045;-88
2022/08/24 06:32:12;;;;;;;49.10;44.83;;;20.70;99.90;;;;;;4981517;28;20151;-88
2022/08/24 06:34:42;;;;;;;46.75;42.75;;;20.90;99.90;;;;;;4982405;28;20076;-89
2022/08/24 06:37:09;;;;;;;46.08;42.15;;;21.20;99.90;;;;;;4988288;28;20665;-88
2022/08/24 06:39:36;;;;;;;44.83;41.17;;;21.40;99.90;;;;;;5002151;28;20045;-88
2022/08/24 06:42:06;;;;;;;42.58;39.35;;;21.50;99.90;;;;;;4998481;28;20521;-87
2022/08/24 06:44:32;;;;;;;46.15;42.00;;;21.70;99.90;;;;;;4982458;28;20243;-87
2022/08/24 06:47:12;;;;;;;44.75;41.10;;;21.90;99.90;;;;;;5011326;28;20040;-88
2022/08/24 06:49:39;;;;;;;43.20;39.45;;;22.00;99.90;;;;;;4982994;28;20068;-88
2022/08/24 06:52:08;;;;;;;42.65;39.13;;;22.20;99.90;;;;;;5001967;28;20044;-88
2022/08/24 06:54:44;;;;;;;43.88;40.08;;;22.40;99.90;;;;;;5000466;28;20045;-88
2022/08/24 06:57:21;;;;;;;43.10;39.45;;;22.70;99.90;;;;;;5025378;28;20052;-88
2022/08/24 06:59:52;;;;;;;42.75;38.95;;;22.90;99.90;;;;;;4996579;28;20054;-88
2022/08/24 07:02:24;;;;;;;42.33;38.67;;;23.20;99.90;;;;;;4982165;28;20037;-88
2022/08/24 07:04:52;;;;;;;42.45;39.05;;;23.30;99.90;;;;;;4982406;28;20473;-88
2022/08/24 07:07:40;;;;;;;39.55;36.40;;;23.40;99.90;;;;;;5005941;28;20040;-88
2022/08/24 07:10:11;;;;;;;41.38;37.88;;;23.70;99.90;;;;;;5002296;28;20045;-89
2022/08/24 07:12:40;;;;;;;40.63;37.42;;;23.90;99.90;;;;;;5002328;28;20037;-88
2022/08/24 07:15:08;;;;;;;41.17;37.42;;;24.00;99.90;;;;;;4983282;28;20083;-87
2022/08/24 07:17:34;;;;;;;39.38;35.85;;;24.20;99.90;;;;;;4997840;28;20056;-87
2022/08/24 07:20:04;;;;;;;36.85;33.80;;;24.50;99.90;;;;;;4978697;28;20276;-87
2022/08/24 07:23:38;;;;;;;37.28;34.20;;;24.70;99.90;;;;;;4981223;28;20125;-88
2022/08/24 07:26:07;;;;;;;31.60;28.90;;;25.10;99.90;;;;;;5018611;28;20596;-88
2022/08/24 07:28:36;;;;;;;;;;;25.40;99.90;;;;;;5035987;28;20049;-89
2022/08/24 07:31:04;;;;;;;29.92;27.35;;;25.60;99.90;;;;;;5017628;28;19923;-87
2022/08/24 07:33:39;;;;;;;29.75;27.38;;;25.90;99.90;;;;;;5031903;28;20076;-89
2022/08/24 07:36:06;;;;;;;29.67;27.25;;;26.50;99.90;;;;;;5023610;28;20083;-88
2022/08/24 07:38:35;;;;;;;24.20;22.13;;;26.70;99.90;;;;;;5024076;28;20100;-88
2022/08/24 07:41:01;;;;;;;26.80;24.52;;;27.10;99.90;;;;;;4992617;28;20055;-88
2022/08/24 07:43:29;;;;;;;27.90;25.48;;;27.30;99.90;;;;;;4983803;28;20094;-88
2022/08/24 07:46:22;;;;;;;;;;;;;;;;;;;;;
2022/08/24 07:48:51;;;;;;;23.42;21.58;;;27.60;99.90;;;;;;4994919;28;20041;-88
2022/08/24 07:51:20;;;;;;;21.88;19.70;;;28.00;99.90;;;;;;4983992;28;20520;-88
2022/08/24 07:53:59;;;;;;;21.25;19.02;;;28.40;99.90;;;;;;4963066;28;20414;-88
2022/08/24 07:57:01;;;;;;;24.67;22.42;;;28.40;99.90;;;;;;4970240;28;20155;-87
2022/08/24 07:59:38;;;;;;;24.95;22.63;;;28.50;99.90;;;;;;4997574;28;20591;-88
2022/08/24 08:02:09;;;;;;;26.13;23.63;;;28.80;99.90;;;;;;4995641;28;20052;-87
2022/08/24 08:04:48;;;;;;;25.02;22.52;;;28.90;99.90;;;;;;4972012;28;20041;-86
2022/08/24 08:07:22;;;;;;;25.48;23.30;;;28.80;99.90;;;;;;5001192;28;20107;-88
2022/08/24 08:09:49;;;;;;;25.88;23.67;;;28.70;99.90;;;;;;4977985;28;20622;-87
2022/08/24 08:12:18;;;;;;;21.65;19.65;;;29.00;99.90;;;;;;5000123;28;20068;-89
2022/08/24 08:15:10;;;;;;;21.42;19.38;;;29.30;99.90;;;;;;4982741;28;20125;-88
2022/08/24 08:17:48;;;;;;;20.45;18.55;;;29.40;99.90;;;;;;5009411;28;20041;-88
2022/08/24 08:20:17;;;;;;;19.52;17.65;;;29.80;99.90;;;;;;5002690;28;20395;-88
2022/08/24 08:25:51;;;;;;;14.98;10.52;;;30.30;99.30;;;;;;4998160;28;20385;-89
2022/08/24 08:28:25;;;;;;;13.02;11.68;;;30.30;96.00;;;;;;4994977;28;20045;-88
2022/08/24 08:30:52;;;;;;;13.30;12.10;;;30.60;96.10;;;;;;5015192;28;20056;-88
2022/08/24 08:33:22;;;;;;;13.27;11.10;;;30.30;95.60;;;;;;5015214;28;20048;-88
2022/08/24 08:36:06;;;;;;;11.05;8.98;;;30.40;95.40;;;;;;4980474;28;20511;-87
2022/08/24 08:38:35;;;;;;;10.77;8.77;;;31.10;92.50;;;;;;4983630;28;20037;-87
2022/08/24 08:41:20;;;;;;;12.35;9.57;;;31.40;91.70;;;;;;4997554;28;20145;-87
2022/08/24 08:44:20;;;;;;;13.10;11.82;;;31.00;90.80;;;;;;4993643;28;20044;-86
2022/08/24 08:47:16;;;;;;;13.00;11.60;;;31.30;90.80;;;;;;4978485;28;20790;-86
2022/08/24 08:50:02;;;;;;;14.27;12.85;;;31.10;92.00;;;;;;4999184;28;20041;-86
2022/08/24 08:53:13;;;;;;;12.27;11.07;;;31.20;92.50;;;;;;5011573;28;20037;-87
2022/08/24 08:56:18;;;;;;;11.30;10.07;;;31.80;90.10;;;;;;4994227;28;20045;-86
2022/08/24 08:59:04;;;;;;;16.45;11.27;;;31.60;84.20;;;;;;4976565;28;20051;-87
2022/08/24 09:02:20;;;;;;;14.65;13.02;;;31.90;90.70;;;;;;5006144;28;20500;-87
2022/08/24 09:05:29;;;;;;;11.80;10.32;;;31.90;82.00;;;;;;4987112;28;20072;-86
2022/08/24 09:08:22;;;;;;;11.23;8.68;;;32.10;86.20;;;;;;5017397;28;20052;-87
2022/08/24 09:11:08;;;;;;;10.13;7.35;;;32.40;79.30;;;;;;5032335;28;20048;-87
2022/08/24 09:13:53;;;;;;;9.27;7.65;;;32.60;81.30;;;;;;5008861;28;20041;-86
2022/08/24 09:17:06;;;;;;;10.35;7.55;;;32.70;78.50;;;;;;5022357;28;20049;-86
2022/08/24 09:20:05;;;;;;;13.10;7.60;;;32.90;71.60;;;;;;5006300;28;20048;-86
2022/08/24 09:22:42;;;;;;;11.13;7.70;;;32.90;70.70;;;;;;5011377;28;21020;-86
2022/08/24 09:25:49;;;;;;;9.35;7.72;;;33.00;68.00;;;;;;5010809;28;20508;-86
2022/08/24 09:28:43;;;;;;;10.57;7.30;;;33.20;69.90;;;;;;5003439;28;20048;-86
2022/08/24 09:31:46;;;;;;;8.15;5.85;;;33.50;66.20;;;;;;5013365;28;20206;-87
2022/08/24 09:34:24;;;;;;;11.02;7.10;;;33.70;63.30;;;;;;5035798;28;20492;-87
2022/08/24 09:37:19;;;;;;;8.07;6.88;;;32.90;64.60;;;;;;5030011;28;20040;-86
2022/08/24 09:40:00;;;;;;;9.52;7.22;;;33.60;64.90;;;;;;5009506;28;20033;-87
2022/08/24 09:42:41;;;;;;;11.18;6.32;;;34.00;62.80;;;;;;5022915;28;20044;-87
2022/08/24 09:45:28;;;;;;;8.50;6.18;;;33.80;65.10;;;;;;5012326;28;20097;-87
2022/08/24 09:48:23;;;;;;;9.35;7.13;;;34.20;65.70;;;;;;5009370;28;20135;-88
2022/08/24 09:51:18;;;;;;;9.00;6.28;;;34.00;63.40;;;;;;4999987;28;20459;-89
2022/08/24 09:53:50;;;;;;;8.80;6.70;;;34.40;64.10;;;;;;5007173;28;20044;-88
2022/08/24 09:56:46;;;;;;;7.53;5.82;;;34.50;60.50;;;;;;5014740;28;20090;-87
2022/08/24 09:59:54;;;;;;;7.55;6.50;;;34.60;61.10;;;;;;5011453;28;20041;-87
2022/08/24 10:02:58;;;;;;;8.25;6.50;;;34.60;59.00;;;;;;4993641;28;20045;-88
2022/08/24 10:06:02;;;;;;;9.27;6.13;;;34.80;58.20;;;;;;4996994;28;20048;-86
2022/08/24 10:08:34;;;;;;;8.23;4.95;;;34.80;57.50;;;;;;5012724;28;20487;-86
2022/08/24 10:11:22;;;;;;;11.43;5.30;;;34.90;58.50;;;;;;4990732;28;20073;-86
2022/08/24 10:14:17;;;;;;;9.63;5.30;;;34.80;57.30;;;;;;5015321;28;20083;-86
2022/08/24 10:17:12;;;;;;;8.32;4.47;;;35.10;56.90;;;;;;5012267;28;20080;-86
2022/08/24 10:20:18;;;;;;;7.53;4.28;;;35.40;55.90;;;;;;5002168;28;20045;-87
2022/08/24 10:22:44;;;;;;;7.55;5.00;;;35.30;55.10;;;;;;4999115;28;20519;-87
2022/08/24 10:25:40;;;;;;;6.80;4.50;;;35.30;55.50;;;;;;4997551;28;20081;-87
2022/08/24 10:28:32;;;;;;;7.10;4.28;;;35.60;54.30;;;;;;4994760;28;20187;-86
2022/08/24 10:31:30;;;;;;;6.30;4.35;;;35.90;55.10;;;;;;4991576;28;20049;-87
2022/08/24 10:34:19;;;;;;;7.95;4.13;;;35.70;54.60;;;;;;5004236;28;20758;-87
2022/08/24 10:36:59;;;;;;;5.60;3.35;;;36.00;54.30;;;;;;5010071;28;20040;-88
2022/08/24 10:39:48;;;;;;;4.75;2.22;;;36.00;52.50;;;;;;5015473;28;20040;-87
2022/08/24 10:45:35;;;;;;;4.80;2.50;;;35.90;52.50;;;;;;5045076;28;20496;-87
2022/08/24 10:48:19;;;;;;;4.75;2.40;;;35.90;52.10;;;;;;4995473;28;20102;-87
2022/08/24 10:51:18;;;;;;;4.78;2.22;;;36.20;52.50;;;;;;4989667;28;20627;-87
2022/08/24 10:53:51;;;;;;;4.88;3.42;;;36.30;53.50;;;;;;5015278;28;20059;-87
2022/08/24 10:56:34;;;;;;;7.15;3.70;;;36.00;52.10;;;;;;5008812;28;20148;-87
2022/08/24 10:59:27;;;;;;;3.70;2.00;;;35.60;51.90;;;;;;5007109;28;20060;-87
2022/08/24 11:02:05;;;;;;;8.00;4.60;;;36.00;53.30;;;;;;5026372;28;20044;-87
2022/08/24 11:04:34;;;;;;;5.55;2.10;;;35.90;53.40;;;;;;4998241;28;20137;-87
2022/08/24 11:07:16;;;;;;;3.55;1.60;;;36.10;52.50;;;;;;5010929;28;20492;-87
2022/08/24 11:10:02;;;;;;;3.22;1.80;;;36.20;51.20;;;;;;5005364;28;20053;-87
2022/08/24 11:12:32;;;;;;;5.68;1.80;;;36.30;51.10;;;;;;4994913;28;20392;-88
2022/08/24 11:15:02;;;;;;;4.40;2.00;;;36.60;51.50;;;;;;5011912;28;20050;-88
2022/08/24 11:17:33;;;;;;;6.85;2.35;;;36.30;50.80;;;;;;5027835;28;20084;-87
2022/08/24 11:20:00;;;;;;;3.08;1.73;;;36.20;50.30;;;;;;5020829;28;20072;-87
2022/08/24 11:22:29;;;;;;;4.53;2.58;;;36.40;51.00;;;;;;5002038;28;20057;-86
2022/08/24 11:25:13;;;;;;;4.28;2.50;;;36.80;50.20;;;;;;5021247;28;20048;-86
2022/08/24 11:27:45;;;;;;;4.15;2.47;;;37.20;49.70;;;;;;4994052;28;20036;-86
2022/08/24 11:30:22;;;;;;;5.43;1.88;;;37.20;50.70;;;;;;5003148;28;20397;-86
2022/08/24 11:33:05;;;;;;;3.58;1.40;;;37.30;50.70;;;;;;5028042;28;20044;-85
2022/08/24 11:35:31;;;;;;;3.08;1.35;;;37.10;48.40;;;;;;5005987;28;20500;-86
2022/08/24 11:38:07;;;;;;;3.67;1.42;;;37.40;49.60;;;;;;5000354;28;20068;-86
2022/08/24 11:40:39;;;;;;;3.72;1.52;;;37.50;49.40;;;;;;5011320;28;20548;-86
2022/08/24 11:43:28;;;;;;;5.32;2.00;;;37.50;49.80;;;;;;5010217;28;20517;-85
2022/08/24 11:46:10;;;;;;;4.47;1.80;;;37.20;48.90;;;;;;5005260;28;20041;-86
2022/08/24 11:49:06;;;;;;;2.20;1.13;;;37.30;48.40;;;;;;5016086;28;20097;-86
2022/08/24 11:51:50;;;;;;;3.00;1.70;;;37.70;48.60;;;;;;5017887;28;20043;-87
2022/08/24 11:54:37;;;;;;;2.13;1.10;;;37.40;48.00;;;;;;5003226;28;20174;-87
2022/08/24 11:57:50;;;;;;;3.90;1.38;;;37.70;47.80;;;;;;5030150;28;20044;-86
2022/08/24 12:00:23;;;;;;;4.63;1.40;;;37.40;47.50;;;;;;5022790;28;20040;-85
2022/08/24 12:03:02;;;;;;;2.83;1.45;;;37.40;48.30;;;;;;4998606;28;20055;-86
2022/08/24 12:05:59;;;;;;;3.45;1.10;;;37.40;48.00;;;;;;5003788;28;20040;-86
2022/08/24 12:08:32;;;;;;;3.85;2.70;;;37.50;47.60;;;;;;4998007;28;20045;-86
2022/08/24 12:11:11;;;;;;;2.58;0.90;;;37.60;47.80;;;;;;4994441;28;20466;-86
2022/08/24 12:13:43;;;;;;;2.15;0.95;;;38.00;46.50;;;;;;5030088;28;20110;-86
2022/08/24 12:16:24;;;;;;;2.28;0.88;;;38.10;46.90;;;;;;4995929;28;20438;-85
2022/08/24 12:18:59;;;;;;;1.88;1.20;;;37.50;46.50;;;;;;5000297;28;20040;-86
2022/08/24 12:21:31;;;;;;;2.47;0.98;;;37.70;47.10;;;;;;5023486;28;20055;-86
2022/08/24 12:24:04;;;;;;;3.70;1.00;;;37.40;46.50;;;;;;5003349;28;20048;-86
2022/08/24 12:26:33;;;;;;;1.90;0.88;;;37.30;46.80;;;;;;5019184;28;20049;-87
2022/08/24 12:29:17;;;;;;;2.25;1.10;;;37.60;47.30;;;;;;5008349;28;20044;-86
2022/08/24 12:31:51;;;;;;;;;;;37.80;45.90;;;;;;5016815;28;20093;-86
2022/08/24 12:34:48;;;;;;;2.88;1.27;;;37.60;46.70;;;;;;5032531;28;20376;-85
2022/08/24 12:37:20;;;;;;;2.97;0.95;;;37.90;46.20;;;;;;5015569;28;20098;-86
2022/08/24 12:40:15;;;;;;;5.07;1.45;;;38.00;46.90;;;;;;4996013;28;20037;-87
2022/08/24 12:43:04;;;;;;;3.42;1.52;;;37.90;46.60;;;;;;5030840;28;20354;-86
2022/08/24 12:45:31;;;;;;;5.20;3.78;;;37.30;47.20;;;;;;4991193;28;20078;-86
2022/08/24 12:48:12;;;;;;;2.60;1.63;;;37.50;47.50;;;;;;5009625;28;20132;-86
2022/08/24 12:51:15;;;;;;;5.80;5.30;;;37.80;46.40;;;;;;5024759;28;20040;-85
2022/08/24 12:54:00;;;;;;;2.78;1.30;;;38.20;46.70;;;;;;4997451;28;20048;-85
2022/08/24 12:56:48;;;;;;;2.60;1.00;;;38.30;46.70;;;;;;4998246;28;20063;-86
2022/08/24 12:59:28;;;;;;;2.28;1.10;;;38.60;46.50;;;;;;5025939;28;20041;-85
2022/08/24 13:02:16;;;;;;;5.47;0.98;;;38.40;45.30;;;;;;4995850;28;20040;-85
2022/08/24 13:04:48;;;;;;;2.53;1.10;;;38.40;46.20;;;;;;5006125;28;20048;-86
2022/08/24 13:07:18;;;;;;;2.90;1.15;;;38.20;44.50;;;;;;5011175;28;20072;-85
2022/08/24 13:09:59;;;;;;;2.17;0.98;;;38.70;44.50;;;;;;5009770;28;20468;-85
2022/08/24 13:12:45;;;;;;;1.77;1.10;;;38.60;44.50;;;;;;4983446;28;20449;-85
2022/08/24 13:15:27;;;;;;;6.68;1.30;;;38.10;44.80;;;;;;4996439;28;20076;-85
2022/08/24 13:18:08;;;;;;;2.30;1.05;;;37.10;45.30;;;;;;5012001;28;20040;-85
2022/08/24 13:20:37;;;;;;;2.20;1.00;;;36.40;46.70;;;;;;5024893;28;20428;-86
2022/08/24 13:23:24;;;;;;;3.90;3.33;;;35.70;47.30;;;;;;4993621;28;20986;-85
2022/08/24 13:25:54;;;;;;;6.75;6.15;;;35.90;47.90;;;;;;5013092;28;20053;-85
2022/08/24 13:28:20;;;;;;;7.47;6.35;;;36.70;46.60;;;;;;5009530;28;20440;-85